Time;durP1;ratioP1;P1;durP2;ratioP2;P2;SDS_P1;SDS_P2;PMS_P1;PMS_P2;Temp;Humidity;BMP_temperature;BMP_pressure;BME280_temperature;BME280_humidity;BME280_pressure;Samples;Min_cycle;Max_cycle;Signal;HPM_P1;HPM_P2
2023/06/08 00:00:03;;;;;;;10.00;8.17;;;15.40;79.40;;;;;;5133384;27;20435;-74
2023/06/08 00:02:30;;;;;;;8.83;6.63;;;15.30;79.30;;;;;;5133298;27;20687;-74
2023/06/08 00:04:57;;;;;;;8.03;7.20;;;15.20;79.30;;;;;;5133195;27;20849;-74
2023/06/08 00:07:25;;;;;;;10.67;7.73;;;15.20;79.40;;;;;;5132940;27;20793;-74
2023/06/08 00:09:53;;;;;;;8.30;6.90;;;15.10;79.60;;;;;;5133077;27;20431;-74
2023/06/08 00:12:20;;;;;;;8.00;6.77;;;15.00;79.70;;;;;;5133303;28;20435;-73
2023/06/08 00:14:48;;;;;;;8.07;6.30;;;15.00;79.80;;;;;;5133148;27;20435;-74
2023/06/08 00:17:14;;;;;;;7.23;6.10;;;14.90;80.10;;;;;;5133421;27;20447;-74
2023/06/08 00:19:43;;;;;;;8.03;6.20;;;14.90;80.60;;;;;;5132877;27;20475;-74
2023/06/08 00:22:12;;;;;;;8.23;6.70;;;14.80;81.10;;;;;;5133092;28;20435;-74
2023/06/08 00:24:41;;;;;;;9.17;7.20;;;14.80;81.80;;;;;;5133044;27;20435;-74
2023/06/08 00:27:09;;;;;;;10.00;7.60;;;14.70;82.30;;;;;;5135570;27;20785;-74
2023/06/08 00:29:36;;;;;;;9.17;6.90;;;14.60;82.80;;;;;;5136738;27;20494;-74
2023/06/08 00:32:03;;;;;;;9.63;6.63;;;14.60;83.20;;;;;;5136630;27;20438;-74
2023/06/08 00:34:30;;;;;;;9.37;7.00;;;14.60;83.40;;;;;;5136694;27;20423;-74
2023/06/08 00:36:57;;;;;;;6.53;5.67;;;14.60;83.90;;;;;;5136581;27;20956;-74
2023/06/08 00:39:25;;;;;;;9.30;7.50;;;14.60;83.50;;;;;;5136542;27;20544;-74
2023/06/08 00:41:53;;;;;;;9.70;7.00;;;14.60;83.80;;;;;;5136533;27;20447;-74
2023/06/08 00:44:20;;;;;;;8.60;6.30;;;14.60;83.90;;;;;;5136754;27;20443;-73
2023/06/08 00:46:49;;;;;;;8.30;6.90;;;14.60;83.90;;;;;;5136653;27;20431;-74
2023/06/08 00:49:19;;;;;;;9.83;7.30;;;14.60;83.60;;;;;;5136293;27;20433;-74
2023/06/08 00:51:49;;;;;;;10.03;7.37;;;14.60;83.70;;;;;;5136336;27;20435;-74
2023/06/08 00:54:17;;;;;;;9.40;7.00;;;14.50;83.90;;;;;;5136307;27;20457;-73
2023/06/08 00:56:48;;;;;;;8.47;7.13;;;14.40;84.60;;;;;;5136155;27;20499;-74
2023/06/08 00:59:16;;;;;;;8.20;7.30;;;14.30;84.80;;;;;;5136079;27;20481;-74
2023/06/08 01:01:44;;;;;;;9.53;7.00;;;14.30;85.20;;;;;;5136247;27;20457;-74
2023/06/08 01:04:14;;;;;;;9.63;7.77;;;14.30;85.50;;;;;;5136301;27;20502;-74
2023/06/08 01:06:44;;;;;;;8.30;7.27;;;14.30;85.80;;;;;;5135976;27;20530;-74
2023/06/08 01:09:21;;;;;;;8.13;6.70;;;14.30;85.80;;;;;;5135958;27;20997;-74
2023/06/08 01:12:00;;;;;;;7.83;6.63;;;14.30;86.40;;;;;;5135899;27;20433;-74
2023/06/08 01:14:38;;;;;;;8.17;6.83;;;14.30;86.20;;;;;;5135450;27;20521;-73
2023/06/08 01:17:12;;;;;;;10.80;8.00;;;14.30;85.90;;;;;;5135790;27;20954;-74
2023/06/08 01:19:58;;;;;;;6.97;6.00;;;14.20;85.80;;;;;;5135574;27;20492;-74
2023/06/08 01:22:29;;;;;;;9.87;7.30;;;14.20;86.00;;;;;;5135916;27;20480;-73
2023/06/08 01:25:04;;;;;;;9.93;8.80;;;14.10;86.40;;;;;;5135653;27;20435;-74
2023/06/08 01:27:36;;;;;;;8.07;6.77;;;14.10;86.30;;;;;;5135638;27;20443;-74
2023/06/08 01:30:04;;;;;;;10.33;7.63;;;14.10;86.60;;;;;;5135458;27;20435;-74
2023/06/08 01:32:31;;;;;;;8.57;7.50;;;14.20;87.20;;;;;;5135656;27;20487;-73
2023/06/08 01:34:58;;;;;;;9.13;7.37;;;14.10;87.00;;;;;;5135367;27;20842;-74
2023/06/08 01:37:31;;;;;;;9.37;7.47;;;14.10;87.70;;;;;;5134845;27;20989;-74
2023/06/08 01:40:06;;;;;;;10.23;8.10;;;14.00;87.70;;;;;;5135531;27;20482;-74
2023/06/08 01:42:35;;;;;;;8.80;7.57;;;14.00;87.40;;;;;;5135456;27;20521;-74
2023/06/08 01:45:08;;;;;;;10.77;6.20;;;13.90;87.10;;;;;;5135049;27;20963;-74
2023/06/08 01:47:38;;;;;;;7.20;6.50;;;13.90;87.40;;;;;;5135378;27;20471;-73
2023/06/08 01:50:08;;;;;;;10.10;7.30;;;13.90;87.90;;;;;;5135254;27;20477;-74
2023/06/08 01:52:35;;;;;;;8.03;7.10;;;13.80;88.20;;;;;;5135243;27;20442;-74
2023/06/08 01:55:04;;;;;;;7.80;7.00;;;13.80;88.60;;;;;;5135156;27;20461;-74
2023/06/08 01:57:31;;;;;;;7.30;6.43;;;13.80;89.00;;;;;;5135067;27;20937;-74
2023/06/08 01:59:58;;;;;;;9.27;7.47;;;13.70;89.30;;;;;;5134498;27;20483;-74
2023/06/08 02:02:26;;;;;;;15.32;7.72;;;13.80;90.20;;;;;;5135034;27;20470;-74
2023/06/08 02:04:53;;;;;;;8.60;6.97;;;13.80;90.00;;;;;;5134870;27;20244;-74
2023/06/08 02:07:21;;;;;;;8.60;7.50;;;13.80;90.10;;;;;;5134746;27;20438;-73
2023/06/08 02:09:48;;;;;;;8.40;7.60;;;13.80;90.20;;;;;;5135062;27;20797;-74
2023/06/08 02:12:16;;;;;;;8.83;7.80;;;13.80;90.30;;;;;;5135082;27;20812;-73
2023/06/08 02:14:43;;;;;;;8.97;8.07;;;13.80;90.00;;;;;;5134493;27;20508;-74
2023/06/08 02:17:11;;;;;;;9.10;8.20;;;13.70;90.10;;;;;;5134549;27;20472;-74
2023/06/08 02:19:38;;;;;;;9.23;7.30;;;13.60;90.10;;;;;;5134262;27;20482;-73
2023/06/08 02:22:05;;;;;;;9.68;7.05;;;13.60;90.20;;;;;;5134486;27;20437;-74
2023/06/08 02:24:32;;;;;;;9.13;7.57;;;13.60;90.40;;;;;;5134308;27;20193;-74
2023/06/08 02:26:59;;;;;;;9.10;7.17;;;13.60;90.20;;;;;;5134622;27;20433;-74
2023/06/08 02:29:27;;;;;;;7.37;6.57;;;13.50;90.30;;;;;;5134363;27;20431;-73
2023/06/08 02:31:55;;;;;;;7.90;7.10;;;13.50;90.30;;;;;;5134033;27;20504;-73
2023/06/08 02:34:23;;;;;;;10.23;8.57;;;13.50;90.40;;;;;;5134530;27;20531;-73
2023/06/08 02:36:50;;;;;;;13.53;10.40;;;13.50;90.50;;;;;;5134255;27;20434;-73
2023/06/08 02:39:17;;;;;;;12.07;8.63;;;13.50;90.60;;;;;;5134038;27;20855;-74
2023/06/08 02:41:44;;;;;;;8.13;7.33;;;13.50;90.60;;;;;;5134047;27;20437;-73
2023/06/08 02:44:11;;;;;;;9.50;7.60;;;13.40;90.60;;;;;;5134004;27;21162;-73
2023/06/08 02:46:39;;;;;;;10.67;8.17;;;13.30;90.90;;;;;;5134282;27;20427;-73
2023/06/08 02:49:07;;;;;;;9.17;8.00;;;13.30;91.00;;;;;;5133532;27;20447;-74
2023/06/08 02:51:35;;;;;;;10.40;8.37;;;13.30;90.90;;;;;;5133320;27;20998;-73
2023/06/08 02:54:02;;;;;;;9.17;7.90;;;13.30;90.90;;;;;;5134357;27;20443;-73
2023/06/08 02:56:29;;;;;;;8.40;7.53;;;13.20;91.20;;;;;;5133960;27;20792;-73
2023/06/08 02:58:57;;;;;;;10.87;7.87;;;13.20;91.20;;;;;;5134119;27;20481;-74
2023/06/08 03:01:25;;;;;;;9.43;8.17;;;13.20;91.50;;;;;;5133635;27;20445;-73
2023/06/08 03:03:53;;;;;;;8.90;7.30;;;13.10;91.60;;;;;;5133511;27;20445;-73
2023/06/08 03:06:26;;;;;;;12.00;8.50;;;13.10;91.80;;;;;;5133677;27;20441;-73
2023/06/08 03:08:54;;;;;;;7.90;7.10;;;13.10;91.80;;;;;;5133621;27;20655;-73
2023/06/08 03:11:21;;;;;;;8.52;7.55;;;13.10;92.00;;;;;;5133869;27;20189;-73
2023/06/08 03:13:48;;;;;;;8.15;7.32;;;13.10;92.10;;;;;;5133875;27;20241;-73
2023/06/08 03:16:15;;;;;;;9.63;8.63;;;13.10;92.20;;;;;;5133925;27;20197;-73
2023/06/08 03:18:44;;;;;;;9.65;8.15;;;13.10;92.30;;;;;;5133693;27;20274;-73
2023/06/08 03:21:13;;;;;;;12.55;7.90;;;13.10;92.30;;;;;;5133439;27;20220;-73
2023/06/08 03:23:40;;;;;;;11.05;8.65;;;13.10;92.10;;;;;;5133353;27;20972;-73
2023/06/08 03:26:07;;;;;;;8.85;7.95;;;13.10;92.30;;;;;;5133556;27;20200;-74
2023/06/08 03:28:34;;;;;;;8.32;7.40;;;13.10;92.10;;;;;;5133546;27;20185;-74
2023/06/08 03:31:02;;;;;;;11.52;8.00;;;13.00;91.80;;;;;;5133284;27;20188;-73
2023/06/08 03:33:29;;;;;;;8.30;7.40;;;13.00;92.00;;;;;;5133908;27;20188;-73
2023/06/08 03:35:56;;;;;;;8.32;7.53;;;13.10;92.00;;;;;;5133579;27;20200;-73
2023/06/08 03:38:25;;;;;;;10.60;8.00;;;13.10;92.10;;;;;;5133247;27;20650;-73
2023/06/08 03:40:52;;;;;;;10.85;7.40;;;13.10;92.20;;;;;;5133274;27;20439;-73
2023/06/08 03:43:19;;;;;;;10.95;8.13;;;13.20;92.30;;;;;;5133404;27;20185;-73
2023/06/08 03:45:46;;;;;;;8.40;7.60;;;13.20;92.20;;;;;;5133389;27;20236;-73
2023/06/08 03:48:13;;;;;;;8.57;7.33;;;13.20;92.20;;;;;;5133194;27;20879;-73
2023/06/08 03:50:43;;;;;;;9.00;7.20;;;13.20;92.30;;;;;;5133167;27;20432;-73
2023/06/08 03:53:11;;;;;;;8.43;7.57;;;13.30;92.40;;;;;;5133562;27;21003;-73
2023/06/08 03:55:41;;;;;;;9.80;7.07;;;13.30;92.30;;;;;;5133136;27;20477;-73
2023/06/08 03:58:08;;;;;;;8.70;6.90;;;13.40;92.20;;;;;;5133418;27;20517;-74
2023/06/08 04:00:35;;;;;;;8.50;7.40;;;13.40;92.10;;;;;;5132957;27;20484;-74
2023/06/08 04:03:02;;;;;;;7.85;7.05;;;13.40;92.10;;;;;;5137652;27;20439;-73
2023/06/08 04:05:29;;;;;;;9.25;7.65;;;13.40;92.20;;;;;;5137555;27;20613;-73
2023/06/08 04:07:58;;;;;;;8.00;7.20;;;13.40;91.90;;;;;;5137287;27;20647;-73
2023/06/08 04:10:25;;;;;;;8.02;6.85;;;13.50;91.90;;;;;;5137658;27;20536;-73
2023/06/08 04:12:53;;;;;;;8.93;7.53;;;13.60;91.60;;;;;;5137315;27;20237;-73
2023/06/08 04:15:20;;;;;;;9.20;7.63;;;13.60;91.50;;;;;;5137447;27;20446;-73
2023/06/08 04:17:50;;;;;;;8.57;7.10;;;13.70;91.50;;;;;;5137457;27;20433;-73
2023/06/08 04:20:17;;;;;;;9.07;7.27;;;13.70;91.70;;;;;;5137204;27;20477;-73
2023/06/08 04:22:45;;;;;;;8.23;6.70;;;13.80;91.80;;;;;;5137079;27;20475;-74
2023/06/08 04:25:12;;;;;;;9.20;7.20;;;13.90;91.80;;;;;;5136972;27;20437;-74
2023/06/08 04:27:39;;;;;;;10.57;7.93;;;14.00;91.70;;;;;;5136679;27;20446;-73
2023/06/08 04:30:09;;;;;;;9.50;7.80;;;14.10;91.60;;;;;;5136936;27;20435;-73
2023/06/08 04:32:36;;;;;;;9.10;7.20;;;14.20;91.20;;;;;;5136900;27;20439;-73
2023/06/08 04:35:03;;;;;;;9.47;7.03;;;14.30;91.10;;;;;;5136524;27;20873;-74
2023/06/08 04:37:30;;;;;;;9.80;6.93;;;14.30;91.00;;;;;;5137068;27;20434;-74
2023/06/08 04:39:58;;;;;;;7.47;6.60;;;14.40;90.90;;;;;;5136478;27;20500;-73
2023/06/08 04:42:25;;;;;;;9.57;7.17;;;14.40;91.00;;;;;;5136497;27;20452;-73
2023/06/08 04:44:53;;;;;;;11.43;8.23;;;14.50;91.10;;;;;;5136650;27;20435;-73
2023/06/08 04:47:21;;;;;;;6.90;6.30;;;14.40;91.00;;;;;;5136458;27;20435;-73
2023/06/08 04:49:51;;;;;;;10.13;8.30;;;14.40;91.10;;;;;;5136363;27;20808;-74
2023/06/08 04:52:19;;;;;;;10.63;7.43;;;14.40;90.80;;;;;;5136596;27;20430;-74
2023/06/08 04:54:52;;;;;;;8.80;7.60;;;14.40;90.70;;;;;;5136106;27;20467;-73
2023/06/08 04:57:21;;;;;;;8.03;7.23;;;14.30;90.90;;;;;;5136860;27;20439;-74
2023/06/08 04:59:48;;;;;;;10.80;7.10;;;14.40;91.50;;;;;;5136126;27;20989;-74
2023/06/08 05:02:15;;;;;;;7.47;6.70;;;14.50;92.20;;;;;;5136412;27;20535;-74
2023/06/08 05:04:44;;;;;;;8.80;7.90;;;14.50;92.60;;;;;;5136198;27;20437;-74
2023/06/08 05:07:11;;;;;;;8.10;7.27;;;14.50;92.80;;;;;;5136075;27;20434;-73
2023/06/08 05:09:38;;;;;;;8.23;7.30;;;14.50;92.90;;;;;;5136310;27;20518;-73
2023/06/08 05:12:06;;;;;;;8.70;7.00;;;14.60;92.80;;;;;;5135568;27;20941;-73
2023/06/08 05:14:33;;;;;;;8.60;7.60;;;14.70;92.80;;;;;;5135681;27;20462;-73
2023/06/08 05:17:00;;;;;;;8.43;7.63;;;14.80;92.50;;;;;;5135828;27;20439;-74
2023/06/08 05:19:27;;;;;;;10.30;7.90;;;14.90;92.30;;;;;;5135995;27;20479;-74
2023/06/08 05:21:55;;;;;;;7.47;6.70;;;15.00;92.50;;;;;;5135605;27;20470;-74
2023/06/08 05:24:27;;;;;;;9.13;8.23;;;15.10;92.50;;;;;;5135712;27;20835;-74
2023/06/08 05:26:54;;;;;;;9.10;7.53;;;15.20;92.60;;;;;;5135872;27;20478;-74
2023/06/08 05:29:21;;;;;;;8.87;7.93;;;15.30;92.30;;;;;;5135887;27;20574;-74
2023/06/08 05:31:49;;;;;;;8.00;7.20;;;15.40;92.70;;;;;;5135610;27;20839;-74
2023/06/08 05:34:16;;;;;;;8.53;7.30;;;15.50;92.50;;;;;;5135992;27;20792;-74
2023/06/08 05:36:43;;;;;;;8.63;7.73;;;15.60;92.20;;;;;;5135669;27;20453;-74
2023/06/08 05:39:11;;;;;;;9.70;7.67;;;15.70;92.00;;;;;;5135485;27;20434;-74
2023/06/08 05:41:39;;;;;;;7.53;6.73;;;15.80;92.00;;;;;;5135377;27;20468;-74
2023/06/08 05:44:06;;;;;;;8.07;7.37;;;16.00;92.10;;;;;;5135435;27;20499;-74
2023/06/08 05:46:32;;;;;;;8.43;7.00;;;16.10;91.80;;;;;;5135461;27;20499;-74
2023/06/08 05:48:59;;;;;;;8.20;7.30;;;16.20;91.80;;;;;;5135421;27;20442;-74
2023/06/08 05:51:26;;;;;;;10.07;7.17;;;16.30;91.80;;;;;;5135079;27;20442;-73
2023/06/08 05:53:53;;;;;;;7.77;7.00;;;16.50;91.50;;;;;;5135043;27;20538;-73
2023/06/08 05:56:22;;;;;;;9.00;7.40;;;16.60;91.40;;;;;;5135792;27;20860;-74
2023/06/08 05:58:49;;;;;;;7.90;7.10;;;16.70;91.20;;;;;;5134737;27;20527;-74
2023/06/08 06:01:16;;;;;;;14.23;7.67;;;16.80;90.60;;;;;;5134839;27;20559;-74
2023/06/08 06:03:43;;;;;;;10.03;5.60;;;16.90;90.10;;;;;;5135017;27;20450;-74
2023/06/08 06:06:11;;;;;;;10.30;7.57;;;17.00;89.00;;;;;;5134640;27;20447;-74
2023/06/08 06:08:38;;;;;;;8.77;7.70;;;17.10;88.30;;;;;;5134764;27;20473;-74
2023/06/08 06:11:05;;;;;;;8.93;7.20;;;17.20;87.70;;;;;;5134617;27;20475;-74
2023/06/08 06:13:34;;;;;;;7.77;6.57;;;17.30;86.90;;;;;;5134810;27;20447;-74
2023/06/08 06:16:01;;;;;;;8.73;6.53;;;17.50;87.30;;;;;;5134792;27;20446;-74
2023/06/08 06:18:28;;;;;;;12.60;8.10;;;17.60;88.00;;;;;;5134540;27;20440;-74
2023/06/08 06:20:55;;;;;;;9.07;7.10;;;17.70;87.60;;;;;;5134674;27;20535;-74
2023/06/08 06:23:22;;;;;;;10.17;7.50;;;17.90;86.90;;;;;;5134587;27;20439;-74
2023/06/08 06:25:50;;;;;;;8.13;7.30;;;18.00;86.30;;;;;;5133926;27;20439;-74
2023/06/08 06:28:17;;;;;;;7.80;6.57;;;18.10;85.60;;;;;;5134666;27;20502;-74
2023/06/08 06:30:45;;;;;;;7.37;6.67;;;18.30;84.60;;;;;;5134458;27;20860;-74
2023/06/08 06:33:12;;;;;;;11.60;7.00;;;18.40;82.90;;;;;;5134167;27;20436;-74
2023/06/08 06:35:39;;;;;;;8.17;7.13;;;18.50;82.10;;;;;;5134063;27;20435;-74
2023/06/08 06:38:06;;;;;;;7.27;6.33;;;18.60;82.10;;;;;;5134063;27;20440;-74
2023/06/08 06:40:33;;;;;;;7.53;6.83;;;18.80;82.60;;;;;;5134201;27;20566;-74
2023/06/08 06:43:00;;;;;;;7.90;7.10;;;18.90;81.80;;;;;;5134339;27;20441;-74
2023/06/08 06:45:27;;;;;;;7.30;6.60;;;19.00;81.50;;;;;;5133841;27;20440;-74
2023/06/08 06:47:55;;;;;;;9.17;7.33;;;19.10;80.90;;;;;;5134137;27;20513;-74
2023/06/08 06:50:22;;;;;;;9.07;6.13;;;19.10;80.30;;;;;;5134235;27;20493;-74
2023/06/08 06:52:49;;;;;;;6.93;5.97;;;19.10;80.50;;;;;;5133863;27;20443;-74
2023/06/08 06:55:16;;;;;;;7.10;5.23;;;19.10;80.50;;;;;;5133970;27;20487;-74
2023/06/08 06:57:44;;;;;;;6.97;6.30;;;19.10;79.90;;;;;;5133719;27;20440;-74
2023/06/08 07:00:12;;;;;;;6.53;5.90;;;19.20;79.40;;;;;;5134090;27;20476;-74
2023/06/08 07:02:40;;;;;;;7.97;7.10;;;19.20;79.70;;;;;;5133642;27;20440;-74
2023/06/08 07:05:10;;;;;;;8.20;6.63;;;19.30;81.10;;;;;;5133455;27;20444;-74
2023/06/08 07:07:37;;;;;;;8.40;7.13;;;19.40;80.90;;;;;;5133647;27;20469;-74
2023/06/08 07:10:04;;;;;;;8.80;6.97;;;19.50;80.70;;;;;;5133534;27;20443;-74
2023/06/08 07:12:31;;;;;;;6.50;5.80;;;19.70;79.50;;;;;;5133535;27;20501;-74
2023/06/08 07:14:58;;;;;;;7.23;5.87;;;19.90;78.20;;;;;;5133299;27;20954;-74
2023/06/08 07:17:25;;;;;;;9.73;6.60;;;20.00;77.30;;;;;;5133725;27;20437;-74
2023/06/08 07:19:54;;;;;;;6.97;5.93;;;20.10;77.10;;;;;;5133354;27;20520;-75
2023/06/08 07:22:22;;;;;;;7.23;6.53;;;20.30;76.90;;;;;;5133566;27;20447;-75
2023/06/08 07:24:49;;;;;;;7.20;5.27;;;20.40;75.60;;;;;;5128948;27;20778;-74
2023/06/08 07:27:16;;;;;;;7.47;5.50;;;20.60;75.20;;;;;;5130332;27;20484;-73
2023/06/08 07:29:43;;;;;;;7.80;6.00;;;20.70;74.00;;;;;;5131815;27;20478;-73
2023/06/08 07:32:12;;;;;;;6.40;5.47;;;20.80;73.70;;;;;;5131425;27;20444;-72
2023/06/08 07:34:39;;;;;;;8.73;5.63;;;20.90;67.80;;;;;;5130998;27;20440;-73
2023/06/08 07:37:07;;;;;;;6.43;5.77;;;21.10;67.20;;;;;;5134182;27;20844;-73
2023/06/08 07:39:35;;;;;;;5.97;4.73;;;21.20;67.10;;;;;;5135907;27;20443;-73
2023/06/08 07:42:04;;;;;;;9.00;5.57;;;21.30;63.90;;;;;;5136023;27;20438;-74
2023/06/08 07:44:31;;;;;;;5.63;5.07;;;21.40;63.00;;;;;;5135349;27;20847;-73
2023/06/08 07:46:58;;;;;;;6.57;5.43;;;21.60;64.50;;;;;;5136004;27;20443;-73
2023/06/08 07:49:25;;;;;;;7.70;5.57;;;21.80;62.70;;;;;;5135239;27;20864;-73
2023/06/08 07:51:52;;;;;;;6.23;5.20;;;21.90;62.60;;;;;;5135755;27;20438;-73
2023/06/08 07:54:19;;;;;;;4.93;4.23;;;22.10;63.70;;;;;;5135186;27;20436;-73
2023/06/08 07:56:48;;;;;;;5.77;5.03;;;22.20;61.60;;;;;;5135698;27;20443;-73
2023/06/08 07:59:15;;;;;;;8.63;5.63;;;22.30;63.70;;;;;;5135838;27;20432;-73
2023/06/08 08:01:47;;;;;;;11.53;5.80;;;22.50;63.60;;;;;;5135223;27;20471;-73
2023/06/08 08:04:14;;;;;;;7.60;5.67;;;22.60;63.10;;;;;;5135573;27;20437;-73
2023/06/08 08:06:41;;;;;;;7.83;5.67;;;22.70;62.80;;;;;;5134832;27;20440;-73
2023/06/08 08:09:08;;;;;;;8.80;5.87;;;22.90;61.70;;;;;;5135066;27;20481;-73
2023/06/08 08:11:36;;;;;;;7.43;5.30;;;23.00;61.20;;;;;;5134763;27;20439;-73
2023/06/08 08:14:09;;;;;;;7.03;5.83;;;23.10;60.80;;;;;;5135046;27;20441;-73
2023/06/08 08:16:36;;;;;;;7.27;5.60;;;23.30;61.10;;;;;;5135364;27;20477;-72
2023/06/08 08:19:03;;;;;;;7.03;4.97;;;23.40;60.60;;;;;;5134370;27;20438;-72
2023/06/08 08:21:30;;;;;;;6.90;5.20;;;23.60;58.90;;;;;;5135130;27;20483;-73
2023/06/08 08:23:57;;;;;;;5.43;4.50;;;23.70;58.50;;;;;;5135080;27;20436;-73
2023/06/08 08:26:25;;;;;;;6.47;4.53;;;23.90;59.10;;;;;;5134824;27;20441;-73
2023/06/08 08:28:52;;;;;;;10.13;5.00;;;24.10;58.20;;;;;;5134922;27;20884;-73
2023/06/08 08:31:20;;;;;;;11.87;4.77;;;24.20;57.50;;;;;;5134912;27;20435;-73
2023/06/08 08:33:47;;;;;;;7.73;5.20;;;24.40;57.60;;;;;;5134945;27;20500;-73
2023/06/08 08:36:14;;;;;;;5.17;4.47;;;24.60;57.10;;;;;;5134599;27;20448;-73
2023/06/08 08:38:41;;;;;;;5.60;4.37;;;24.70;57.30;;;;;;5134206;27;20445;-73
2023/06/08 08:41:12;;;;;;;5.97;4.97;;;24.80;56.60;;;;;;5134417;27;20528;-72
2023/06/08 08:43:47;;;;;;;5.07;4.17;;;25.00;56.70;;;;;;5130487;27;20449;-73
2023/06/08 08:46:16;;;;;;;7.80;5.50;;;25.20;55.70;;;;;;5133212;27;20452;-72
2023/06/08 08:48:45;;;;;;;6.93;5.77;;;25.30;55.10;;;;;;5134155;27;20429;-72
2023/06/08 08:51:19;;;;;;;8.93;5.47;;;25.40;54.10;;;;;;5134338;27;20440;-73
2023/06/08 08:53:47;;;;;;;5.40;4.33;;;25.60;55.30;;;;;;5130150;27;20441;-73
2023/06/08 08:56:17;;;;;;;6.33;4.97;;;25.80;55.00;;;;;;5133387;27;20873;-72
2023/06/08 08:58:46;;;;;;;6.87;5.90;;;25.90;53.00;;;;;;5130245;27;20477;-73
2023/06/08 09:01:13;;;;;;;5.00;4.23;;;26.10;52.80;;;;;;5132680;27;20831;-73
2023/06/08 09:03:41;;;;;;;11.80;4.77;;;26.20;52.90;;;;;;5133124;27;21027;-72
2023/06/08 09:06:09;;;;;;;6.47;4.83;;;26.30;51.60;;;;;;5133099;27;20479;-73
2023/06/08 09:08:36;;;;;;;6.40;5.20;;;26.40;50.20;;;;;;5132716;27;20432;-72
2023/06/08 09:11:05;;;;;;;7.83;5.00;;;26.60;51.50;;;;;;5128530;27;20431;-73
2023/06/08 09:13:32;;;;;;;4.90;4.20;;;26.70;51.70;;;;;;5132796;27;20534;-74
2023/06/08 09:16:10;;;;;;;5.67;4.57;;;26.80;51.40;;;;;;5132906;27;20468;-73
2023/06/08 09:18:40;;;;;;;6.10;4.73;;;26.90;47.20;;;;;;5133171;27;20488;-72
2023/06/08 09:21:22;;;;;;;5.57;4.07;;;27.10;47.90;;;;;;5133867;27;20471;-73
2023/06/08 09:24:04;;;;;;;5.60;3.73;;;27.20;48.20;;;;;;5134515;27;20441;-73
2023/06/08 09:26:32;;;;;;;6.73;3.70;;;27.40;47.80;;;;;;5134087;27;20468;-73
2023/06/08 09:29:02;;;;;;;5.43;4.30;;;27.60;47.80;;;;;;5134415;27;20435;-73
2023/06/08 09:31:31;;;;;;;5.70;3.67;;;27.90;44.40;;;;;;5120011;27;20433;-73
2023/06/08 09:34:09;;;;;;;4.83;3.80;;;28.00;42.00;;;;;;5130271;27;20450;-72
2023/06/08 09:36:38;;;;;;;6.73;3.87;;;28.20;42.10;;;;;;5130430;27;20435;-72
2023/06/08 09:39:09;;;;;;;5.30;4.77;;;28.40;41.00;;;;;;5132058;27;20433;-74
2023/06/08 09:41:37;;;;;;;6.40;4.23;;;28.60;41.40;;;;;;5131197;27;20839;-73
2023/06/08 09:44:17;;;;;;;6.00;3.90;;;28.90;40.60;;;;;;5133518;27;20527;-73
2023/06/08 09:46:45;;;;;;;4.87;4.00;;;29.20;39.80;;;;;;5134390;27;20757;-73
2023/06/08 09:49:14;;;;;;;5.17;4.10;;;29.50;37.60;;;;;;5133851;27;20790;-74
2023/06/08 09:51:47;;;;;;;11.47;4.30;;;29.60;37.50;;;;;;5133724;27;20532;-74
2023/06/08 09:54:16;;;;;;;5.10;4.60;;;29.90;37.10;;;;;;5131051;27;20437;-74
2023/06/08 09:56:47;;;;;;;5.23;3.97;;;30.10;36.20;;;;;;5133108;27;20515;-73
2023/06/08 09:59:16;;;;;;;5.00;3.87;;;30.20;36.50;;;;;;5127805;27;20483;-73
2023/06/08 10:01:47;;;;;;;7.70;4.87;;;30.30;34.70;;;;;;5132153;27;20480;-73
2023/06/08 10:04:24;;;;;;;4.70;3.77;;;30.40;35.80;;;;;;5131996;27;20503;-73
2023/06/08 10:06:57;;;;;;;6.00;4.10;;;30.40;33.00;;;;;;5132157;27;20830;-73
2023/06/08 10:09:28;;;;;;;5.60;4.67;;;30.40;34.90;;;;;;5132449;27;20531;-73
2023/06/08 10:11:56;;;;;;;4.10;3.70;;;30.50;34.40;;;;;;5133214;27;20448;-73
2023/06/08 10:14:25;;;;;;;8.17;4.13;;;30.60;33.10;;;;;;5132440;27;20787;-73
2023/06/08 10:16:52;;;;;;;5.90;4.17;;;30.60;33.90;;;;;;5132566;27;20441;-73
2023/06/08 10:19:20;;;;;;;5.83;4.10;;;30.70;33.40;;;;;;5130157;27;20548;-72
2023/06/08 10:21:48;;;;;;;5.37;3.50;;;30.80;31.30;;;;;;5130829;27;20999;-73
2023/06/08 10:24:20;;;;;;;5.83;3.53;;;31.00;30.90;;;;;;5131781;27;20470;-73
2023/06/08 10:26:48;;;;;;;5.03;4.07;;;31.20;30.50;;;;;;5132541;27;20441;-74
2023/06/08 10:29:15;;;;;;;5.73;3.83;;;31.30;29.60;;;;;;5131436;27;20540;-73
2023/06/08 10:31:47;;;;;;;5.70;3.90;;;31.40;27.70;;;;;;5131008;27;20506;-74
2023/06/08 10:34:16;;;;;;;4.20;3.57;;;31.50;30.50;;;;;;5129007;27;20832;-74
2023/06/08 10:36:44;;;;;;;6.40;3.97;;;31.50;28.70;;;;;;5129085;27;20455;-74
2023/06/08 10:39:12;;;;;;;6.70;4.33;;;31.60;28.00;;;;;;5131314;27;20430;-74
2023/06/08 10:41:43;;;;;;;5.73;4.00;;;31.40;28.50;;;;;;5130251;27;21019;-74
2023/06/08 10:44:27;;;;;;;4.70;3.87;;;31.40;27.30;;;;;;5129816;27;20446;-74
2023/06/08 10:47:00;;;;;;;5.23;3.70;;;31.30;27.20;;;;;;5131793;27;20440;-73
2023/06/08 10:49:35;;;;;;;4.87;3.40;;;31.20;27.60;;;;;;5131191;27;20457;-74
2023/06/08 10:52:03;;;;;;;5.97;4.33;;;31.30;28.30;;;;;;5130098;27;20539;-73
2023/06/08 10:54:30;;;;;;;5.60;4.10;;;31.40;27.60;;;;;;5131005;27;20534;-74
2023/06/08 10:57:00;;;;;;;5.73;3.93;;;31.60;27.60;;;;;;5130980;27;20434;-75
2023/06/08 10:59:32;;;;;;;6.63;3.90;;;31.60;28.30;;;;;;5130323;27;20526;-73
2023/06/08 11:02:02;;;;;;;6.03;4.30;;;31.60;27.70;;;;;;5127939;27;20483;-73
2023/06/08 11:04:30;;;;;;;7.63;4.53;;;31.50;27.70;;;;;;5130284;27;20434;-73
2023/06/08 11:07:00;;;;;;;7.17;4.00;;;31.50;27.30;;;;;;5131399;27;20499;-73
2023/06/08 11:09:32;;;;;;;5.20;4.57;;;31.40;27.60;;;;;;5130983;27;20440;-74
2023/06/08 11:12:01;;;;;;;6.40;4.27;;;31.30;27.40;;;;;;5126965;27;20485;-75
2023/06/08 11:14:28;;;;;;;4.00;3.60;;;31.20;27.50;;;;;;5129537;27;20968;-74
2023/06/08 11:16:57;;;;;;;6.17;4.20;;;31.00;28.10;;;;;;5130604;27;21430;-74
2023/06/08 11:19:25;;;;;;;4.90;4.10;;;30.80;29.70;;;;;;5131408;27;20531;-73
2023/06/08 11:21:53;;;;;;;6.80;5.00;;;30.60;29.00;;;;;;5131347;27;20505;-74
2023/06/08 11:24:20;;;;;;;4.67;3.90;;;30.40;28.70;;;;;;5130816;27;20834;-74
2023/06/08 11:26:48;;;;;;;5.00;4.00;;;30.20;29.60;;;;;;5132049;27;20499;-74
2023/06/08 11:29:16;;;;;;;5.17;3.80;;;30.10;29.70;;;;;;5131885;27;20433;-74
2023/06/08 11:31:44;;;;;;;4.63;3.90;;;30.00;30.00;;;;;;5131020;27;20430;-74
2023/06/08 11:34:17;;;;;;;5.50;4.63;;;30.10;30.20;;;;;;5131588;27;20448;-74
2023/06/08 11:36:45;;;;;;;4.20;3.70;;;30.20;29.60;;;;;;5130276;27;20444;-74
2023/06/08 11:39:12;;;;;;;4.40;4.00;;;30.20;28.60;;;;;;5131391;27;20838;-75
2023/06/08 11:41:45;;;;;;;5.37;4.87;;;30.30;29.30;;;;;;5130878;27;20468;-74
2023/06/08 11:44:13;;;;;;;5.50;5.00;;;30.30;31.80;;;;;;5129953;28;20541;-74
2023/06/08 11:46:42;;;;;;;5.90;4.40;;;30.30;33.80;;;;;;5130853;27;20442;-74
2023/06/08 11:49:09;;;;;;;6.60;5.13;;;30.20;33.20;;;;;;5131167;27;20486;-75
2023/06/08 11:51:46;;;;;;;7.27;4.20;;;30.10;33.50;;;;;;5128345;27;20472;-75
2023/06/08 11:54:13;;;;;;;6.27;4.60;;;29.90;32.80;;;;;;5128934;28;20463;-75
2023/06/08 11:56:41;;;;;;;7.23;4.83;;;29.90;36.10;;;;;;5131112;27;20441;-74
2023/06/08 11:59:08;;;;;;;6.67;4.83;;;30.00;34.60;;;;;;5130528;27;20493;-74
2023/06/08 12:01:37;;;;;;;5.40;4.50;;;30.20;32.70;;;;;;5129863;27;20997;-74
2023/06/08 12:04:13;;;;;;;4.50;4.10;;;30.10;32.60;;;;;;5127977;27;20443;-74
2023/06/08 12:06:41;;;;;;;7.90;5.20;;;30.10;33.20;;;;;;5130159;27;20521;-74
2023/06/08 12:09:08;;;;;;;8.33;4.80;;;29.90;31.60;;;;;;5132503;27;20439;-74
2023/06/08 12:11:36;;;;;;;5.40;4.57;;;29.70;31.80;;;;;;5130410;27;20483;-75
2023/06/08 12:14:05;;;;;;;6.23;4.93;;;29.40;31.60;;;;;;5130483;27;20531;-74
2023/06/08 12:16:43;;;;;;;4.83;3.23;;;29.20;32.20;;;;;;5129746;27;20784;-74
2023/06/08 12:19:12;;;;;;;6.90;3.77;;;29.00;32.70;;;;;;5129768;27;20432;-74
2023/06/08 12:21:41;;;;;;;5.40;3.80;;;28.80;32.50;;;;;;5129891;27;20476;-74
2023/06/08 12:24:08;;;;;;;4.33;3.37;;;28.60;32.20;;;;;;5133692;27;20863;-74
2023/06/08 12:26:35;;;;;;;7.03;3.20;;;28.30;31.00;;;;;;5134121;27;20440;-74
2023/06/08 12:29:06;;;;;;;6.47;4.00;;;28.10;30.90;;;;;;5134004;27;21002;-74
2023/06/08 12:31:33;;;;;;;4.90;3.70;;;27.70;31.00;;;;;;5133292;27;20935;-73
2023/06/08 12:34:02;;;;;;;4.53;3.33;;;27.60;31.30;;;;;;5133758;27;20522;-74
2023/06/08 12:36:32;;;;;;;6.60;3.73;;;27.40;32.10;;;;;;5134198;27;20449;-74
2023/06/08 12:38:59;;;;;;;5.30;3.63;;;27.20;32.40;;;;;;5133910;27;20437;-73
2023/06/08 12:41:26;;;;;;;5.87;4.07;;;27.10;31.40;;;;;;5132905;27;20933;-74
2023/06/08 12:43:54;;;;;;;4.33;3.50;;;26.90;32.70;;;;;;5119624;27;20438;-74
2023/06/08 12:46:21;;;;;;;5.20;3.50;;;26.90;34.10;;;;;;5133162;27;20446;-74
2023/06/08 12:48:49;;;;;;;5.33;3.00;;;26.80;31.70;;;;;;5127797;27;20431;-73
2023/06/08 12:51:16;;;;;;;8.73;4.10;;;26.80;33.40;;;;;;5131510;27;20437;-75